createdAt,value
2019-04-20T00:00:54.753Z,8.17
2019-04-20T00:03:35.308Z,5.73
2019-04-20T00:06:06.966Z,18.97
2019-04-20T00:08:44.412Z,5.27
2019-04-20T00:11:26.224Z,5.27
2019-04-20T00:14:04.101Z,7.23
2019-04-20T00:16:33.798Z,6.30
2019-04-20T00:19:10.539Z,5.13
2019-04-20T00:21:56.133Z,4.93
2019-04-20T00:24:31.044Z,4.43
2019-04-20T00:27:26.098Z,9.27
2019-04-20T00:29:59.719Z,12.17
2019-04-20T00:35:20.905Z,9.37
2019-04-20T00:37:57.072Z,8.73
2019-04-20T00:40:35.579Z,6.90
2019-04-20T00:43:14.126Z,10.00
2019-04-20T00:45:53.786Z,7.57
2019-04-20T00:48:38.556Z,8.03
2019-04-20T00:51:23.895Z,6.27
2019-04-20T00:53:43.324Z,7.53
2019-04-20T00:56:16.208Z,5.83
2019-04-20T00:59:05.741Z,5.67
2019-04-20T01:01:53.497Z,6.50
2019-04-20T01:04:32.837Z,6.43
2019-04-20T01:07:04.600Z,4.77
2019-04-20T01:09:49.914Z,4.70
2019-04-20T01:12:28.569Z,4.90
2019-04-20T01:15:05.771Z,5.30
2019-04-20T01:17:41.797Z,4.83
2019-04-20T01:20:16.911Z,4.60
2019-04-20T01:23:00.055Z,5.23
2019-04-20T01:25:33.851Z,5.07
2019-04-20T01:28:25.048Z,4.50
2019-04-20T01:30:51.574Z,5.90
2019-04-20T01:33:34.352Z,4.17
2019-04-20T01:36:24.022Z,5.60
2019-04-20T01:38:47.192Z,4.87
2019-04-20T01:41:12.200Z,5.87
2019-04-20T01:43:48.102Z,6.00
2019-04-20T01:46:28.378Z,5.73
2019-04-20T01:49:10.549Z,5.87
2019-04-20T01:51:49.142Z,4.70
2019-04-20T01:54:31.195Z,5.37
2019-04-20T01:57:04.668Z,7.53
2019-04-20T01:59:52.107Z,6.77
2019-04-20T02:02:21.661Z,7.50
2019-04-20T02:05:06.111Z,5.43
2019-04-20T02:07:38.948Z,5.77
2019-04-20T02:10:15.137Z,4.67
2019-04-20T02:12:55.635Z,4.87
2019-04-20T02:15:32.698Z,5.33
2019-04-20T02:18:14.858Z,5.57
2019-04-20T02:21:01.303Z,5.00
2019-04-20T02:23:31.546Z,4.73
2019-04-20T02:25:54.930Z,6.43
2019-04-20T02:28:55.346Z,5.20
2019-04-20T02:34:24.121Z,7.70
2019-04-20T02:40:07.216Z,5.17
2019-04-20T02:42:34.924Z,6.13
2019-04-20T02:47:51.247Z,5.73
2019-04-20T02:50:20.668Z,5.83
2019-04-20T02:53:05.254Z,6.37
2019-04-20T02:55:41.960Z,5.90
2019-04-20T02:58:15.458Z,5.73
2019-04-20T03:00:44.775Z,5.50
2019-04-20T03:03:10.123Z,5.80
2019-04-20T03:05:43.443Z,5.40
2019-04-20T03:08:26.583Z,6.20
2019-04-20T03:11:15.916Z,8.13
2019-04-20T03:13:46.040Z,6.73
2019-04-20T03:16:22.383Z,20.20
2019-04-20T03:18:53.521Z,21.50
2019-04-20T03:21:38.049Z,31.60
2019-04-20T03:24:19.347Z,7.63
2019-04-20T03:26:52.974Z,8.97
2019-04-20T03:29:51.087Z,12.40
2019-04-20T03:32:57.605Z,31.93
2019-04-20T03:37:46.567Z,50.67
2019-04-20T03:40:12.889Z,10.70
2019-04-20T03:42:37.129Z,28.67
2019-04-20T03:45:16.361Z,63.83
2019-04-20T03:48:00.697Z,30.80
2019-04-20T03:50:47.935Z,75.03
2019-04-20T03:53:22.909Z,8.33
2019-04-20T03:56:03.238Z,32.07
2019-04-20T03:58:47.102Z,24.37
2019-04-20T04:02:03.302Z,9.40
2019-04-20T04:04:21.452Z,18.73
2019-04-20T04:06:46.379Z,33.60
2019-04-20T04:09:25.711Z,15.87
2019-04-20T04:12:06.614Z,22.17
2019-04-20T04:14:30.404Z,8.73
2019-04-20T04:17:06.177Z,13.73
2019-04-20T04:19:52.070Z,9.77
2019-04-20T04:22:37.626Z,10.73
2019-04-20T04:25:09.984Z,12.50
2019-04-20T04:27:55.067Z,8.60
2019-04-20T04:30:30.778Z,18.73
2019-04-20T04:33:42.737Z,16.37
2019-04-20T04:35:51.604Z,8.27
2019-04-20T04:38:39.595Z,14.57
2019-04-20T04:41:17.059Z,9.80
2019-04-20T04:43:47.360Z,9.43
2019-04-20T04:46:03.919Z,9.53
2019-04-20T04:48:44.017Z,9.93
2019-04-20T04:51:22.936Z,8.87
2019-04-20T04:54:01.810Z,9.77
2019-04-20T04:56:32.026Z,8.47
2019-04-20T04:59:08.656Z,8.97
2019-04-20T05:01:46.982Z,9.47
2019-04-20T05:04:48.561Z,9.33
2019-04-20T05:07:12.874Z,11.53
2019-04-20T05:09:38.010Z,10.17
2019-04-20T05:12:19.675Z,8.87
2019-04-20T05:15:01.929Z,9.03
2019-04-20T05:17:51.836Z,9.10
2019-04-20T05:20:22.053Z,9.13
2019-04-20T05:23:04.903Z,9.63
2019-04-20T05:25:56.997Z,9.33
2019-04-20T05:28:24.268Z,9.10
2019-04-20T05:30:59.324Z,8.67
2019-04-20T05:33:56.118Z,9.63
2019-04-20T05:36:30.384Z,9.83
2019-04-20T05:39:13.140Z,9.17
2019-04-20T05:41:40.615Z,9.67
2019-04-20T05:44:12.818Z,10.17
2019-04-20T05:46:59.459Z,9.07
2019-04-20T05:49:31.685Z,9.80
2019-04-20T05:52:24.088Z,11.23
2019-04-20T05:54:45.624Z,9.67
2019-04-20T06:00:21.535Z,10.63
2019-04-20T06:02:36.689Z,8.23
2019-04-20T06:05:20.251Z,9.77
2019-04-20T06:07:57.927Z,9.60
2019-04-20T06:10:32.003Z,9.10
2019-04-20T06:13:22.903Z,10.63
2019-04-20T06:16:07.336Z,12.47
2019-04-20T06:19:10.274Z,9.40
2019-04-20T06:21:37.766Z,9.53
2019-04-20T06:24:20.707Z,9.67
2019-04-20T06:27:00.890Z,9.90
2019-04-20T06:29:26.366Z,10.50
2019-04-20T06:32:14.060Z,10.73
2019-04-20T06:34:41.641Z,9.87
2019-04-20T06:37:24.464Z,10.40
2019-04-20T06:40:07.861Z,10.10
2019-04-20T06:42:35.895Z,8.63
2019-04-20T06:45:20.205Z,11.00
2019-04-20T06:47:52.041Z,10.80
2019-04-20T06:50:22.626Z,11.73
2019-04-20T06:53:32.052Z,10.70
2019-04-20T06:56:06.731Z,10.93
2019-04-20T06:58:47.525Z,10.47
2019-04-20T07:01:13.693Z,8.37
2019-04-20T07:04:04.293Z,9.37
2019-04-20T07:06:48.421Z,9.93
2019-04-20T07:09:20.258Z,8.67
2019-04-20T07:11:42.709Z,9.00
2019-04-20T07:14:06.591Z,9.90
2019-04-20T07:17:09.612Z,10.20
2019-04-20T07:19:50.484Z,9.93
2019-04-20T07:22:46.144Z,9.60
2019-04-20T07:25:26.257Z,9.03
2019-04-20T07:28:02.980Z,9.20
2019-04-20T07:30:35.237Z,8.50
2019-04-20T07:33:15.644Z,9.53
2019-04-20T07:35:53.005Z,10.03
2019-04-20T07:41:01.511Z,10.80
2019-04-20T07:43:54.111Z,10.70
2019-04-20T07:46:39.533Z,9.87
2019-04-20T07:49:01.365Z,10.70
2019-04-20T07:51:23.146Z,9.77
2019-04-20T07:54:33.331Z,9.27
2019-04-20T07:57:03.931Z,10.43
2019-04-20T07:59:30.573Z,11.33
2019-04-20T08:02:46.939Z,9.60
2019-04-20T08:05:10.634Z,11.12
2019-04-20T08:07:44.515Z,9.80
2019-04-20T08:10:35.368Z,9.37
2019-04-20T08:13:40.304Z,8.88
2019-04-20T08:16:25.834Z,9.77
2019-04-20T08:18:54.698Z,9.00
2019-04-20T08:21:38.813Z,10.37
2019-04-20T08:24:17.211Z,9.77
2019-04-20T08:26:51.867Z,9.90
2019-04-20T08:42:10.217Z,9.63
2019-04-20T08:45:08.340Z,8.58
2019-04-20T08:47:56.389Z,8.73
2019-04-20T08:50:27.024Z,8.63
2019-04-20T08:53:17.369Z,8.83
2019-04-20T08:55:46.601Z,10.27
2019-04-20T08:58:09.263Z,8.53
2019-04-20T09:00:49.995Z,8.50
2019-04-20T09:03:30.225Z,8.83
2019-04-20T09:06:08.702Z,7.47
2019-04-20T09:08:50.872Z,9.67
2019-04-20T09:11:39.974Z,7.95
2019-04-20T09:13:58.352Z,9.08
2019-04-20T09:16:40.948Z,8.83
2019-04-20T09:25:57.923Z,7.37
2019-04-20T09:28:16.123Z,9.25
2019-04-20T09:31:11.927Z,6.95
2019-04-20T09:37:24.695Z,6.67
2019-04-20T09:40:10.950Z,7.47
2019-04-20T09:42:26.393Z,7.03
2019-04-20T09:45:07.868Z,6.65
2019-04-20T09:47:49.459Z,7.07
2019-04-20T09:50:37.590Z,5.90
2019-04-20T09:53:20.886Z,6.42
2019-04-20T09:55:56.806Z,6.65
2019-04-20T09:58:37.903Z,6.22
2019-04-20T10:01:13.593Z,6.58
2019-04-20T10:06:51.796Z,6.10
2019-04-20T10:09:38.253Z,7.83
2019-04-20T10:15:28.321Z,6.70
2019-04-20T10:18:03.765Z,10.18
2019-04-20T10:26:58.980Z,7.80
2019-04-20T10:40:00.605Z,9.08
2019-04-20T10:55:45.267Z,6.67
2019-04-20T11:04:59.162Z,6.33
2019-04-20T11:07:41.223Z,6.25
2019-04-20T11:13:27.607Z,6.78
2019-04-20T11:19:15.631Z,7.00
2019-04-20T11:25:04.272Z,6.47
2019-04-20T11:27:45.991Z,7.58
2019-04-20T11:30:32.213Z,6.90
2019-04-20T11:33:11.691Z,6.95
2019-04-20T11:35:48.544Z,7.47
2019-04-20T11:38:30.525Z,8.75
2019-04-20T11:41:22.966Z,6.42
2019-04-20T11:43:55.756Z,6.95
2019-04-20T11:46:39.144Z,7.37
2019-04-20T11:49:17.513Z,6.70
2019-04-20T11:55:04.437Z,6.97
2019-04-20T11:58:05.878Z,6.53
2019-04-20T12:01:02.734Z,6.15
2019-04-20T12:03:54.265Z,6.17
2019-04-20T12:12:42.123Z,9.25
2019-04-20T12:25:08.046Z,7.90
2019-04-20T12:28:27.549Z,6.45
2019-04-20T12:31:24.652Z,9.18
2019-04-20T12:37:34.275Z,10.45
2019-04-20T12:47:03.690Z,8.70
2019-04-20T12:49:53.764Z,8.48
2019-04-20T12:55:52.677Z,12.78
2019-04-20T13:01:53.377Z,6.60
2019-04-20T13:04:37.280Z,11.25
2019-04-20T13:44:38.737Z,13.55
2019-04-20T13:47:14.910Z,11.60
2019-04-20T13:50:13.171Z,10.13
2019-04-20T13:56:32.242Z,9.90
2019-04-20T14:02:48.949Z,13.88
2019-04-20T14:05:46.795Z,7.62
2019-04-20T14:18:11.132Z,7.15
2019-04-20T14:48:42.650Z,5.85
2019-04-20T14:51:42.104Z,5.85
2019-04-20T14:54:21.459Z,7.75
2019-04-20T14:57:01.498Z,7.10
2019-04-20T14:59:43.368Z,8.75
2019-04-20T15:02:26.056Z,8.48
2019-04-20T15:08:22.880Z,7.20
2019-04-20T15:11:12.580Z,5.47
2019-04-20T15:13:56.438Z,5.10
2019-04-20T15:23:21.563Z,5.80
2019-04-20T15:26:11.002Z,6.17
2019-04-20T15:41:15.527Z,7.60
2019-04-20T15:44:29.306Z,6.75
2019-04-20T15:53:17.782Z,7.28
2019-04-20T15:56:11.263Z,6.67
2019-04-20T15:58:50.592Z,5.70
2019-04-20T16:01:34.615Z,5.37
2019-04-20T16:04:48.683Z,8.40
2019-04-20T16:07:48.567Z,14.05
2019-04-20T16:10:28.502Z,26.52
2019-04-20T16:13:16.256Z,14.55
2019-04-20T16:25:37.309Z,9.33
2019-04-20T16:28:27.787Z,6.08
2019-04-20T16:34:15.973Z,5.33
2019-04-20T16:36:56.129Z,14.20
2019-04-20T16:39:34.745Z,5.73
2019-04-20T16:42:18.260Z,5.57
2019-04-20T16:45:05.469Z,3.90
2019-04-20T16:47:54.556Z,13.13
2019-04-20T16:50:33.043Z,7.07
2019-04-20T16:53:26.763Z,4.80
2019-04-20T16:56:24.544Z,4.40
2019-04-20T16:59:12.231Z,4.83
2019-04-20T17:02:02.463Z,4.27
2019-04-20T17:04:39.057Z,4.93
2019-04-20T17:07:28.927Z,4.80
2019-04-20T17:10:07.516Z,14.73
2019-04-20T17:12:44.064Z,10.83
2019-04-20T17:15:23.486Z,59.77
2019-04-20T17:18:01.328Z,50.17
2019-04-20T17:20:38.934Z,48.97
2019-04-20T17:23:17.547Z,43.47
2019-04-20T17:25:52.931Z,25.27
2019-04-20T17:28:36.742Z,98.53
2019-04-20T17:31:17.474Z,212.53
2019-04-20T17:34:06.585Z,171.07
2019-04-20T17:36:38.322Z,85.10
2019-04-20T17:39:25.328Z,42.13
2019-04-20T17:42:07.400Z,20.43
2019-04-20T17:44:42.837Z,49.13
2019-04-20T17:47:27.528Z,25.57
2019-04-20T17:50:06.062Z,56.93
2019-04-20T17:52:44.468Z,4.60
2019-04-20T17:55:16.196Z,55.47
2019-04-20T17:57:41.674Z,15.33
2019-04-20T18:00:24.094Z,31.20
2019-04-20T18:03:30.281Z,15.20
2019-04-20T18:06:14.122Z,68.77
2019-04-20T18:08:50.583Z,214.83
2019-04-20T18:11:15.193Z,97.03
2019-04-20T18:13:47.842Z,143.03
2019-04-20T18:16:46.620Z,66.27
2019-04-20T18:19:17.209Z,60.03
2019-04-20T18:21:49.733Z,47.80
2019-04-20T18:24:48.972Z,69.87
2019-04-20T18:27:24.804Z,68.27
2019-04-20T18:29:58.782Z,102.67
2019-04-20T18:32:27.493Z,53.43
2019-04-20T18:35:18.210Z,83.00
2019-04-20T18:38:02.591Z,92.87
2019-04-20T18:40:44.629Z,68.73
2019-04-20T18:43:18.283Z,183.33
2019-04-20T18:46:10.974Z,65.37
2019-04-20T18:48:45.189Z,263.80
2019-04-20T18:51:03.935Z,210.00
2019-04-20T18:53:42.895Z,83.73
2019-04-20T18:56:23.900Z,67.17
2019-04-20T18:58:53.818Z,26.20
2019-04-20T19:01:30.966Z,92.47
2019-04-20T19:04:07.795Z,63.17
2019-04-20T19:06:43.790Z,78.03
2019-04-20T19:09:25.019Z,34.10
2019-04-20T19:12:02.490Z,88.17
2019-04-20T19:15:02.432Z,94.63
2019-04-20T19:17:49.806Z,167.17
2019-04-20T19:20:25.019Z,498.13
2019-04-20T19:23:00.113Z,172.47
2019-04-20T19:25:38.881Z,26.37
2019-04-20T19:28:14.460Z,82.03
2019-04-20T19:31:01.807Z,146.90
2019-04-20T19:33:40.232Z,32.90
2019-04-20T19:36:17.695Z,68.50
2019-04-20T19:38:52.307Z,126.53
2019-04-20T19:41:28.691Z,193.10
2019-04-20T19:44:07.029Z,149.73
2019-04-20T19:47:05.068Z,30.00
2019-04-20T19:49:21.729Z,121.40
2019-04-20T19:52:20.191Z,37.37
2019-04-20T19:54:43.373Z,157.60
2019-04-20T19:57:20.420Z,57.30
2019-04-20T19:59:41.321Z,26.37
2019-04-20T20:02:13.952Z,88.50
2019-04-20T20:04:54.668Z,52.90
2019-04-20T20:07:33.321Z,8.43
2019-04-20T20:10:06.009Z,150.50
2019-04-20T20:12:48.387Z,30.77
2019-04-20T20:15:25.707Z,27.90
2019-04-20T20:18:15.507Z,132.07
2019-04-20T20:20:52.901Z,655.47
2019-04-20T20:23:10.062Z,309.47
2019-04-20T20:25:48.135Z,450.20
2019-04-20T20:28:31.367Z,670.80
2019-04-20T20:31:08.381Z,5.40
2019-04-20T20:33:54.627Z,149.30
2019-04-20T20:36:21.947Z,203.00
2019-04-20T20:39:08.569Z,90.70
2019-04-20T20:41:45.137Z,813.57
2019-04-20T20:44:24.325Z,25.10
2019-04-20T20:47:10.638Z,40.57
2019-04-20T20:49:48.621Z,31.00
2019-04-20T20:52:18.470Z,675.17
2019-04-20T20:54:49.840Z,466.13
2019-04-20T20:57:20.032Z,683.23
2019-04-20T20:59:57.436Z,660.53
2019-04-20T21:02:43.482Z,528.43
2019-04-20T21:05:07.018Z,737.50
2019-04-20T21:07:42.776Z,12.23
2019-04-20T21:10:26.890Z,133.77
2019-04-20T21:13:01.422Z,66.80
2019-04-20T21:15:33.371Z,15.37
2019-04-20T21:18:35.115Z,225.43
2019-04-20T21:21:02.228Z,205.83
2019-04-20T21:23:36.700Z,33.57
2019-04-20T21:26:12.719Z,4.40
2019-04-20T21:28:45.817Z,5.45
2019-04-20T21:31:24.320Z,381.30
2019-04-20T21:34:02.854Z,132.67
2019-04-20T21:36:35.226Z,218.50
2019-04-20T21:39:22.092Z,399.23
2019-04-20T21:41:56.817Z,175.63
2019-04-20T21:44:29.479Z,404.23
2019-04-20T21:47:03.391Z,441.60
2019-04-20T21:49:53.181Z,519.77
2019-04-20T21:52:24.907Z,280.00
2019-04-20T21:55:00.126Z,86.07
2019-04-20T21:57:46.246Z,27.13
2019-04-20T22:00:42.593Z,68.60
2019-04-20T22:03:18.436Z,234.47
2019-04-20T22:06:02.433Z,186.30
2019-04-20T22:08:39.472Z,345.23
2019-04-20T22:11:15.800Z,4.37
2019-04-20T22:13:53.325Z,23.57
2019-04-20T22:16:35.353Z,15.23
2019-04-20T22:19:22.501Z,41.83
2019-04-20T22:21:58.118Z,27.63
2019-04-20T22:24:40.033Z,12.40
2019-04-20T22:27:06.266Z,16.17
2019-04-20T22:29:36.307Z,6.60
2019-04-20T22:32:20.423Z,11.83
2019-04-20T22:35:01.383Z,14.30
2019-04-20T22:37:38.248Z,8.83
2019-04-20T22:40:22.086Z,5.50
2019-04-20T22:42:54.329Z,7.20
2019-04-20T22:45:29.604Z,6.13
2019-04-20T22:48:09.072Z,4.43
2019-04-20T22:51:01.671Z,9.40
2019-04-20T22:53:36.471Z,5.20
2019-04-20T22:56:18.733Z,11.60
2019-04-20T22:58:44.750Z,32.30
2019-04-20T23:01:24.942Z,8.03
2019-04-20T23:03:52.693Z,6.50
2019-04-20T23:06:33.385Z,6.03
2019-04-20T23:09:12.613Z,6.23
2019-04-20T23:11:45.259Z,6.83
2019-04-20T23:14:20.391Z,11.93
2019-04-20T23:16:57.473Z,8.07
2019-04-20T23:19:40.653Z,5.90
2019-04-20T23:22:13.819Z,8.67
2019-04-20T23:24:49.223Z,5.20
2019-04-20T23:27:31.246Z,5.83
2019-04-20T23:30:12.644Z,11.53
2019-04-20T23:32:42.555Z,8.10
2019-04-20T23:35:20.067Z,6.47
2019-04-20T23:38:01.560Z,5.23
2019-04-20T23:40:31.971Z,6.60
2019-04-20T23:43:31.540Z,8.03
2019-04-20T23:46:21.356Z,10.07
2019-04-20T23:49:19.987Z,8.07
2019-04-20T23:52:09.485Z,12.33
2019-04-20T23:54:31.474Z,24.77
2019-04-20T23:57:05.913Z,14.30
2019-04-20T23:59:44.875Z,10.13
